sensor_id;sensor_type;location;lat;lon;timestamp;temperature;humidity
40085;DHT22;25786;51.504;7.344;2023-02-18T00:01:30;11.00;90.90
40085;DHT22;25786;51.504;7.344;2023-02-18T00:03:56;11.00;91.00
40085;DHT22;25786;51.504;7.344;2023-02-18T00:06:23;11.00;91.00
40085;DHT22;25786;51.504;7.344;2023-02-18T00:08:49;11.00;91.20
40085;DHT22;25786;51.504;7.344;2023-02-18T00:11:15;11.00;90.90
40085;DHT22;25786;51.504;7.344;2023-02-18T00:13:41;11.00;91.00
40085;DHT22;25786;51.504;7.344;2023-02-18T00:16:07;11.00;90.90
40085;DHT22;25786;51.504;7.344;2023-02-18T00:18:33;11.00;90.90
40085;DHT22;25786;51.504;7.344;2023-02-18T00:20:59;11.00;90.50
40085;DHT22;25786;51.504;7.344;2023-02-18T00:23:25;11.00;90.60
40085;DHT22;25786;51.504;7.344;2023-02-18T00:26:07;11.00;90.50
40085;DHT22;25786;51.504;7.344;2023-02-18T00:28:32;11.00;90.70
40085;DHT22;25786;51.504;7.344;2023-02-18T00:30:58;11.00;90.60
40085;DHT22;25786;51.504;7.344;2023-02-18T00:33:24;11.00;90.50
40085;DHT22;25786;51.504;7.344;2023-02-18T00:35:49;11.00;90.00
40085;DHT22;25786;51.504;7.344;2023-02-18T00:38:15;11.00;90.40
40085;DHT22;25786;51.504;7.344;2023-02-18T00:40:41;11.00;90.40
40085;DHT22;25786;51.504;7.344;2023-02-18T00:43:07;11.00;90.20
40085;DHT22;25786;51.504;7.344;2023-02-18T00:45:32;11.00;90.20
40085;DHT22;25786;51.504;7.344;2023-02-18T00:47:58;11.00;90.40
40085;DHT22;25786;51.504;7.344;2023-02-18T00:50:23;11.00;90.50
40085;DHT22;25786;51.504;7.344;2023-02-18T00:52:49;10.90;90.60
40085;DHT22;25786;51.504;7.344;2023-02-18T00:55:15;10.90;90.30
40085;DHT22;25786;51.504;7.344;2023-02-18T00:57:40;11.00;90.10
40085;DHT22;25786;51.504;7.344;2023-02-18T01:00:06;11.00;90.00
40085;DHT22;25786;51.504;7.344;2023-02-18T01:02:31;10.90;90.30
40085;DHT22;25786;51.504;7.344;2023-02-18T01:04:57;11.00;90.30
40085;DHT22;25786;51.504;7.344;2023-02-18T01:07:22;11.00;90.20
40085;DHT22;25786;51.504;7.344;2023-02-18T01:09:48;11.00;90.10
40085;DHT22;25786;51.504;7.344;2023-02-18T01:12:14;11.00;90.00
40085;DHT22;25786;51.504;7.344;2023-02-18T01:14:40;10.90;90.30
40085;DHT22;25786;51.504;7.344;2023-02-18T01:17:06;11.00;90.20
40085;DHT22;25786;51.504;7.344;2023-02-18T01:19:31;10.90;90.40
40085;DHT22;25786;51.504;7.344;2023-02-18T01:21:57;10.90;90.50
40085;DHT22;25786;51.504;7.344;2023-02-18T01:24:22;10.90;90.50
40085;DHT22;25786;51.504;7.344;2023-02-18T01:26:48;10.90;90.70
40085;DHT22;25786;51.504;7.344;2023-02-18T01:29:13;10.90;90.80
40085;DHT22;25786;51.504;7.344;2023-02-18T01:31:39;10.90;90.80
40085;DHT22;25786;51.504;7.344;2023-02-18T01:34:04;10.90;90.90
40085;DHT22;25786;51.504;7.344;2023-02-18T01:36:30;10.90;91.00
40085;DHT22;25786;51.504;7.344;2023-02-18T01:38:55;10.80;91.00
40085;DHT22;25786;51.504;7.344;2023-02-18T01:41:21;10.80;91.30
40085;DHT22;25786;51.504;7.344;2023-02-18T01:43:46;10.80;91.50
40085;DHT22;25786;51.504;7.344;2023-02-18T01:46:19;10.80;91.30
40085;DHT22;25786;51.504;7.344;2023-02-18T01:48:47;10.80;91.30
40085;DHT22;25786;51.504;7.344;2023-02-18T01:51:18;10.80;91.30
40085;DHT22;25786;51.504;7.344;2023-02-18T01:56:11;10.80;91.70
40085;DHT22;25786;51.504;7.344;2023-02-18T01:58:38;10.80;91.40
40085;DHT22;25786;51.504;7.344;2023-02-18T02:01:04;10.80;91.40
40085;DHT22;25786;51.504;7.344;2023-02-18T02:03:30;10.80;91.40
40085;DHT22;25786;51.504;7.344;2023-02-18T02:05:56;10.80;91.40
40085;DHT22;25786;51.504;7.344;2023-02-18T02:08:21;10.80;91.50
40085;DHT22;25786;51.504;7.344;2023-02-18T02:10:56;10.80;91.60
40085;DHT22;25786;51.504;7.344;2023-02-18T02:13:27;10.80;91.30
40085;DHT22;25786;51.504;7.344;2023-02-18T02:16:05;10.80;91.30
40085;DHT22;25786;51.504;7.344;2023-02-18T02:37:08;10.80;90.90
40085;DHT22;25786;51.504;7.344;2023-02-18T02:47:10;10.80;90.90
40085;DHT22;25786;51.504;7.344;2023-02-18T02:49:48;10.80;90.70
40085;DHT22;25786;51.504;7.344;2023-02-18T02:52:21;10.80;90.50
40085;DHT22;25786;51.504;7.344;2023-02-18T02:54:48;10.90;90.30
40085;DHT22;25786;51.504;7.344;2023-02-18T02:59:43;10.80;90.30
40085;DHT22;25786;51.504;7.344;2023-02-18T03:05:13;10.80;90.00
40085;DHT22;25786;51.504;7.344;2023-02-18T03:13:00;10.80;90.20
40085;DHT22;25786;51.504;7.344;2023-02-18T03:15:52;10.80;90.10
40085;DHT22;25786;51.504;7.344;2023-02-18T03:18:17;10.90;90.20
40085;DHT22;25786;51.504;7.344;2023-02-18T03:20:50;10.80;90.00
40085;DHT22;25786;51.504;7.344;2023-02-18T03:23:19;10.80;90.10
40085;DHT22;25786;51.504;7.344;2023-02-18T03:25:47;10.70;90.50
40085;DHT22;25786;51.504;7.344;2023-02-18T03:28:17;10.80;90.70
40085;DHT22;25786;51.504;7.344;2023-02-18T03:30:45;10.80;90.50
40085;DHT22;25786;51.504;7.344;2023-02-18T03:33:13;10.70;90.80
40085;DHT22;25786;51.504;7.344;2023-02-18T03:35:40;10.70;90.90
40085;DHT22;25786;51.504;7.344;2023-02-18T03:38:17;10.70;91.10
40085;DHT22;25786;51.504;7.344;2023-02-18T03:40:45;10.60;91.50
40085;DHT22;25786;51.504;7.344;2023-02-18T03:43:10;10.60;91.30
40085;DHT22;25786;51.504;7.344;2023-02-18T03:45:36;10.70;91.40
40085;DHT22;25786;51.504;7.344;2023-02-18T03:48:01;10.70;91.40
40085;DHT22;25786;51.504;7.344;2023-02-18T03:50:27;10.70;91.30
40085;DHT22;25786;51.504;7.344;2023-02-18T03:52:53;10.60;91.40
40085;DHT22;25786;51.504;7.344;2023-02-18T03:55:18;10.60;91.60
40085;DHT22;25786;51.504;7.344;2023-02-18T03:57:43;10.60;91.60
40085;DHT22;25786;51.504;7.344;2023-02-18T04:00:09;10.70;91.60
40085;DHT22;25786;51.504;7.344;2023-02-18T04:02:35;10.60;91.60
40085;DHT22;25786;51.504;7.344;2023-02-18T04:05:01;10.60;91.70
40085;DHT22;25786;51.504;7.344;2023-02-18T04:07:27;10.60;91.70
40085;DHT22;25786;51.504;7.344;2023-02-18T04:09:52;10.60;91.80
40085;DHT22;25786;51.504;7.344;2023-02-18T04:12:18;10.50;92.00
40085;DHT22;25786;51.504;7.344;2023-02-18T04:14:46;10.60;92.10
40085;DHT22;25786;51.504;7.344;2023-02-18T04:17:12;10.60;92.10
40085;DHT22;25786;51.504;7.344;2023-02-18T04:19:37;10.60;92.10
40085;DHT22;25786;51.504;7.344;2023-02-18T04:22:03;10.60;91.90
40085;DHT22;25786;51.504;7.344;2023-02-18T04:24:28;10.60;92.00
40085;DHT22;25786;51.504;7.344;2023-02-18T04:26:54;10.60;92.00
40085;DHT22;25786;51.504;7.344;2023-02-18T04:29:19;10.60;92.20
40085;DHT22;25786;51.504;7.344;2023-02-18T04:31:45;10.60;92.30
40085;DHT22;25786;51.504;7.344;2023-02-18T04:34:10;10.60;92.30
40085;DHT22;25786;51.504;7.344;2023-02-18T04:36:36;10.60;92.10
40085;DHT22;25786;51.504;7.344;2023-02-18T04:39:01;10.60;92.20
40085;DHT22;25786;51.504;7.344;2023-02-18T04:41:27;10.60;92.40
40085;DHT22;25786;51.504;7.344;2023-02-18T04:43:53;10.60;92.30
40085;DHT22;25786;51.504;7.344;2023-02-18T04:46:19;10.60;92.40
40085;DHT22;25786;51.504;7.344;2023-02-18T04:48:45;10.60;92.20
40085;DHT22;25786;51.504;7.344;2023-02-18T04:51:10;10.60;92.20
40085;DHT22;25786;51.504;7.344;2023-02-18T04:53:36;10.60;92.20
40085;DHT22;25786;51.504;7.344;2023-02-18T04:56:03;10.60;92.30
40085;DHT22;25786;51.504;7.344;2023-02-18T04:58:28;10.60;92.20
40085;DHT22;25786;51.504;7.344;2023-02-18T05:00:57;10.60;92.30
40085;DHT22;25786;51.504;7.344;2023-02-18T05:03:23;10.60;92.20
40085;DHT22;25786;51.504;7.344;2023-02-18T05:05:52;10.60;92.40
40085;DHT22;25786;51.504;7.344;2023-02-18T05:08:21;10.60;92.30
40085;DHT22;25786;51.504;7.344;2023-02-18T05:10:47;10.60;92.50
40085;DHT22;25786;51.504;7.344;2023-02-18T05:13:13;10.60;92.50
40085;DHT22;25786;51.504;7.344;2023-02-18T05:15:39;10.50;92.70
40085;DHT22;25786;51.504;7.344;2023-02-18T05:18:04;10.50;92.90
40085;DHT22;25786;51.504;7.344;2023-02-18T05:20:30;10.50;92.90
40085;DHT22;25786;51.504;7.344;2023-02-18T05:22:55;10.50;92.90
40085;DHT22;25786;51.504;7.344;2023-02-18T05:25:21;10.50;92.90
40085;DHT22;25786;51.504;7.344;2023-02-18T05:27:46;10.50;92.90
40085;DHT22;25786;51.504;7.344;2023-02-18T05:30:12;10.50;92.90
40085;DHT22;25786;51.504;7.344;2023-02-18T05:32:38;10.40;93.10
40085;DHT22;25786;51.504;7.344;2023-02-18T05:35:03;10.50;93.10
40085;DHT22;25786;51.504;7.344;2023-02-18T05:37:29;10.50;93.10
40085;DHT22;25786;51.504;7.344;2023-02-18T05:39:55;10.50;93.00
40085;DHT22;25786;51.504;7.344;2023-02-18T05:42:21;10.40;93.00
40085;DHT22;25786;51.504;7.344;2023-02-18T05:44:47;10.40;93.10
40085;DHT22;25786;51.504;7.344;2023-02-18T05:47:13;10.40;93.00
40085;DHT22;25786;51.504;7.344;2023-02-18T05:49:39;10.40;93.10
40085;DHT22;25786;51.504;7.344;2023-02-18T05:52:11;10.40;93.20
40085;DHT22;25786;51.504;7.344;2023-02-18T05:54:37;10.30;93.20
40085;DHT22;25786;51.504;7.344;2023-02-18T05:57:02;10.40;93.20
40085;DHT22;25786;51.504;7.344;2023-02-18T05:59:28;10.40;93.10
40085;DHT22;25786;51.504;7.344;2023-02-18T06:01:54;10.30;93.10
40085;DHT22;25786;51.504;7.344;2023-02-18T06:04:23;10.30;93.10
40085;DHT22;25786;51.504;7.344;2023-02-18T06:06:49;10.30;93.30
40085;DHT22;25786;51.504;7.344;2023-02-18T06:09:14;10.30;93.30
40085;DHT22;25786;51.504;7.344;2023-02-18T06:11:40;10.20;93.30
40085;DHT22;25786;51.504;7.344;2023-02-18T06:14:05;10.30;93.40
40085;DHT22;25786;51.504;7.344;2023-02-18T06:16:32;10.30;93.20
40085;DHT22;25786;51.504;7.344;2023-02-18T06:18:58;10.30;93.20
40085;DHT22;25786;51.504;7.344;2023-02-18T06:21:24;10.30;93.20
40085;DHT22;25786;51.504;7.344;2023-02-18T06:23:49;10.30;93.20
40085;DHT22;25786;51.504;7.344;2023-02-18T06:26:15;10.30;93.10
40085;DHT22;25786;51.504;7.344;2023-02-18T06:28:41;10.30;93.10
40085;DHT22;25786;51.504;7.344;2023-02-18T06:31:06;10.30;93.20
40085;DHT22;25786;51.504;7.344;2023-02-18T06:33:32;10.30;93.10
40085;DHT22;25786;51.504;7.344;2023-02-18T06:35:58;10.30;93.20
40085;DHT22;25786;51.504;7.344;2023-02-18T06:38:24;10.30;93.10
40085;DHT22;25786;51.504;7.344;2023-02-18T06:40:50;10.30;93.10
40085;DHT22;25786;51.504;7.344;2023-02-18T06:43:16;10.30;93.10
40085;DHT22;25786;51.504;7.344;2023-02-18T06:45:41;10.30;93.00
40085;DHT22;25786;51.504;7.344;2023-02-18T06:48:07;10.30;93.30
40085;DHT22;25786;51.504;7.344;2023-02-18T06:50:32;10.30;93.10
40085;DHT22;25786;51.504;7.344;2023-02-18T06:52:58;10.20;93.00
40085;DHT22;25786;51.504;7.344;2023-02-18T06:55:24;10.30;93.10
40085;DHT22;25786;51.504;7.344;2023-02-18T06:57:49;10.30;93.10
40085;DHT22;25786;51.504;7.344;2023-02-18T07:00:15;10.30;93.10
40085;DHT22;25786;51.504;7.344;2023-02-18T07:02:41;10.30;93.10
40085;DHT22;25786;51.504;7.344;2023-02-18T07:05:06;10.30;93.10
40085;DHT22;25786;51.504;7.344;2023-02-18T07:07:32;10.30;93.00
40085;DHT22;25786;51.504;7.344;2023-02-18T07:09:57;10.30;93.00
40085;DHT22;25786;51.504;7.344;2023-02-18T07:12:23;10.30;93.20
40085;DHT22;25786;51.504;7.344;2023-02-18T07:14:48;10.30;93.00
40085;DHT22;25786;51.504;7.344;2023-02-18T07:17:14;10.20;93.10
40085;DHT22;25786;51.504;7.344;2023-02-18T07:19:39;10.20;93.10
40085;DHT22;25786;51.504;7.344;2023-02-18T07:22:05;10.20;93.00
40085;DHT22;25786;51.504;7.344;2023-02-18T07:24:30;10.20;93.20
40085;DHT22;25786;51.504;7.344;2023-02-18T07:26:56;10.20;93.20
40085;DHT22;25786;51.504;7.344;2023-02-18T07:29:21;10.20;93.20
40085;DHT22;25786;51.504;7.344;2023-02-18T07:31:47;10.30;93.10
40085;DHT22;25786;51.504;7.344;2023-02-18T07:34:12;10.20;92.90
40085;DHT22;25786;51.504;7.344;2023-02-18T07:36:38;10.20;92.90
40085;DHT22;25786;51.504;7.344;2023-02-18T07:39:03;10.20;93.00
40085;DHT22;25786;51.504;7.344;2023-02-18T07:41:29;10.20;93.00
40085;DHT22;25786;51.504;7.344;2023-02-18T07:43:54;10.20;93.00
40085;DHT22;25786;51.504;7.344;2023-02-18T07:46:20;10.20;92.80
40085;DHT22;25786;51.504;7.344;2023-02-18T07:48:45;10.20;92.80
40085;DHT22;25786;51.504;7.344;2023-02-18T07:51:11;10.30;92.70
40085;DHT22;25786;51.504;7.344;2023-02-18T07:53:37;10.20;92.60
40085;DHT22;25786;51.504;7.344;2023-02-18T07:56:03;10.20;92.70
40085;DHT22;25786;51.504;7.344;2023-02-18T07:58:30;10.20;92.40
40085;DHT22;25786;51.504;7.344;2023-02-18T08:00:55;10.20;92.50
40085;DHT22;25786;51.504;7.344;2023-02-18T08:03:23;10.20;92.50
40085;DHT22;25786;51.504;7.344;2023-02-18T08:05:49;10.20;92.40
40085;DHT22;25786;51.504;7.344;2023-02-18T08:08:15;10.30;92.30
40085;DHT22;25786;51.504;7.344;2023-02-18T08:10:41;10.20;91.90
40085;DHT22;25786;51.504;7.344;2023-02-18T08:13:07;10.30;91.80
40085;DHT22;25786;51.504;7.344;2023-02-18T08:15:33;10.30;91.60
40085;DHT22;25786;51.504;7.344;2023-02-18T08:17:58;10.30;91.40
40085;DHT22;25786;51.504;7.344;2023-02-18T08:20:24;10.30;91.40
40085;DHT22;25786;51.504;7.344;2023-02-18T08:22:49;10.30;91.30
40085;DHT22;25786;51.504;7.344;2023-02-18T08:25:14;10.30;91.30
40085;DHT22;25786;51.504;7.344;2023-02-18T08:27:40;10.30;91.20
40085;DHT22;25786;51.504;7.344;2023-02-18T08:30:06;10.40;91.30
40085;DHT22;25786;51.504;7.344;2023-02-18T08:32:31;10.40;91.40
40085;DHT22;25786;51.504;7.344;2023-02-18T08:34:57;10.40;91.10
40085;DHT22;25786;51.504;7.344;2023-02-18T08:37:23;10.40;90.80
40085;DHT22;25786;51.504;7.344;2023-02-18T08:39:48;10.30;90.90
40085;DHT22;25786;51.504;7.344;2023-02-18T08:42:14;10.30;91.20
40085;DHT22;25786;51.504;7.344;2023-02-18T08:44:39;10.20;91.30
40085;DHT22;25786;51.504;7.344;2023-02-18T08:47:05;10.30;91.30
40085;DHT22;25786;51.504;7.344;2023-02-18T08:49:30;10.30;90.60
40085;DHT22;25786;51.504;7.344;2023-02-18T08:51:56;10.40;89.80
40085;DHT22;25786;51.504;7.344;2023-02-18T08:54:25;10.40;90.00
40085;DHT22;25786;51.504;7.344;2023-02-18T08:56:53;10.50;90.00
40085;DHT22;25786;51.504;7.344;2023-02-18T08:59:19;10.50;89.90
40085;DHT22;25786;51.504;7.344;2023-02-18T09:01:44;10.50;89.80
40085;DHT22;25786;51.504;7.344;2023-02-18T09:04:10;10.50;89.70
40085;DHT22;25786;51.504;7.344;2023-02-18T09:06:36;10.30;89.70
40085;DHT22;25786;51.504;7.344;2023-02-18T09:09:02;10.20;89.40
40085;DHT22;25786;51.504;7.344;2023-02-18T09:11:28;10.20;89.70
40085;DHT22;25786;51.504;7.344;2023-02-18T09:13:53;10.10;89.40
40085;DHT22;25786;51.504;7.344;2023-02-18T09:16:20;10.10;89.30
40085;DHT22;25786;51.504;7.344;2023-02-18T09:18:46;10.00;89.70
40085;DHT22;25786;51.504;7.344;2023-02-18T09:21:12;10.00;89.80
40085;DHT22;25786;51.504;7.344;2023-02-18T09:23:38;10.00;89.70
40085;DHT22;25786;51.504;7.344;2023-02-18T09:26:04;9.90;89.70
40085;DHT22;25786;51.504;7.344;2023-02-18T09:28:30;10.00;89.80
40085;DHT22;25786;51.504;7.344;2023-02-18T09:30:56;10.00;89.20
40085;DHT22;25786;51.504;7.344;2023-02-18T09:33:21;10.00;88.40
40085;DHT22;25786;51.504;7.344;2023-02-18T09:35:47;10.00;88.70
40085;DHT22;25786;51.504;7.344;2023-02-18T09:38:14;10.00;88.10
40085;DHT22;25786;51.504;7.344;2023-02-18T09:40:44;10.10;87.80
40085;DHT22;25786;51.504;7.344;2023-02-18T09:45:48;10.10;87.80
40085;DHT22;25786;51.504;7.344;2023-02-18T09:48:14;10.20;87.40
40085;DHT22;25786;51.504;7.344;2023-02-18T09:50:39;10.10;87.40
40085;DHT22;25786;51.504;7.344;2023-02-18T09:53:05;10.10;87.70
40085;DHT22;25786;51.504;7.344;2023-02-18T09:55:35;10.10;87.60
40085;DHT22;25786;51.504;7.344;2023-02-18T09:58:04;10.10;87.00
40085;DHT22;25786;51.504;7.344;2023-02-18T10:03:24;10.00;87.60
40085;DHT22;25786;51.504;7.344;2023-02-18T10:05:57;10.00;87.80
40085;DHT22;25786;51.504;7.344;2023-02-18T10:08:26;10.10;87.90
40085;DHT22;25786;51.504;7.344;2023-02-18T10:10:52;10.00;88.10
40085;DHT22;25786;51.504;7.344;2023-02-18T10:13:20;10.00;88.70
40085;DHT22;25786;51.504;7.344;2023-02-18T10:15:49;10.00;88.70
40085;DHT22;25786;51.504;7.344;2023-02-18T10:20:48;10.00;88.90
40085;DHT22;25786;51.504;7.344;2023-02-18T10:23:15;10.00;88.80
40085;DHT22;25786;51.504;7.344;2023-02-18T10:25:46;10.00;88.70
40085;DHT22;25786;51.504;7.344;2023-02-18T10:28:14;10.00;89.00
40085;DHT22;25786;51.504;7.344;2023-02-18T10:30:44;10.00;88.70
40085;DHT22;25786;51.504;7.344;2023-02-18T10:35:39;10.00;89.10
40085;DHT22;25786;51.504;7.344;2023-02-18T10:40:55;10.00;89.40
40085;DHT22;25786;51.504;7.344;2023-02-18T10:43:47;10.00;89.20
40085;DHT22;25786;51.504;7.344;2023-02-18T10:51:41;9.90;89.70
40085;DHT22;25786;51.504;7.344;2023-02-18T10:54:10;10.00;89.70
40085;DHT22;25786;51.504;7.344;2023-02-18T10:59:30;9.90;90.10
40085;DHT22;25786;51.504;7.344;2023-02-18T11:02:10;10.00;90.20
40085;DHT22;25786;51.504;7.344;2023-02-18T11:04:57;9.90;90.10
40085;DHT22;25786;51.504;7.344;2023-02-18T11:07:33;9.90;90.40
40085;DHT22;25786;51.504;7.344;2023-02-18T11:10:14;9.90;90.40
40085;DHT22;25786;51.504;7.344;2023-02-18T11:12:48;9.90;90.70
40085;DHT22;25786;51.504;7.344;2023-02-18T11:15:15;9.80;90.90
40085;DHT22;25786;51.504;7.344;2023-02-18T11:17:42;9.90;90.80
40085;DHT22;25786;51.504;7.344;2023-02-18T11:22:46;9.90;90.80
40085;DHT22;25786;51.504;7.344;2023-02-18T11:25:24;9.90;91.20
40085;DHT22;25786;51.504;7.344;2023-02-18T11:27:59;9.90;91.10
40085;DHT22;25786;51.504;7.344;2023-02-18T11:30:27;9.90;91.20
40085;DHT22;25786;51.504;7.344;2023-02-18T11:33:20;9.90;91.40
40085;DHT22;25786;51.504;7.344;2023-02-18T11:35:48;9.90;91.60
40085;DHT22;25786;51.504;7.344;2023-02-18T11:38:33;9.80;91.70
40085;DHT22;25786;51.504;7.344;2023-02-18T11:41:02;9.80;91.80
40085;DHT22;25786;51.504;7.344;2023-02-18T11:43:31;9.80;91.70
40085;DHT22;25786;51.504;7.344;2023-02-18T11:46:10;9.80;91.50
40085;DHT22;25786;51.504;7.344;2023-02-18T11:48:37;9.80;91.80
40085;DHT22;25786;51.504;7.344;2023-02-18T11:51:03;9.80;92.00
40085;DHT22;25786;51.504;7.344;2023-02-18T11:53:30;9.90;91.90
40085;DHT22;25786;51.504;7.344;2023-02-18T11:56:16;9.80;91.90
40085;DHT22;25786;51.504;7.344;2023-02-18T11:58:42;9.80;92.20
40085;DHT22;25786;51.504;7.344;2023-02-18T12:01:14;9.80;92.00
40085;DHT22;25786;51.504;7.344;2023-02-18T12:03:47;9.80;92.10
40085;DHT22;25786;51.504;7.344;2023-02-18T12:06:22;9.90;92.00
40085;DHT22;25786;51.504;7.344;2023-02-18T12:11:49;9.90;91.90
40085;DHT22;25786;51.504;7.344;2023-02-18T12:23:05;10.00;91.80
40085;DHT22;25786;51.504;7.344;2023-02-18T12:28:38;9.90;92.10
40085;DHT22;25786;51.504;7.344;2023-02-18T12:36:42;9.90;92.30
40085;DHT22;25786;51.504;7.344;2023-02-18T12:47:22;9.90;92.30
40085;DHT22;25786;51.504;7.344;2023-02-18T12:50:33;10.00;92.40
40085;DHT22;25786;51.504;7.344;2023-02-18T12:53:02;10.00;92.10
40085;DHT22;25786;51.504;7.344;2023-02-18T13:14:19;10.00;92.70
40085;DHT22;25786;51.504;7.344;2023-02-18T13:16:54;10.00;92.60
40085;DHT22;25786;51.504;7.344;2023-02-18T13:19:21;10.00;92.60
40085;DHT22;25786;51.504;7.344;2023-02-18T13:21:49;10.10;92.50
40085;DHT22;25786;51.504;7.344;2023-02-18T13:27:07;10.10;92.70
40085;DHT22;25786;51.504;7.344;2023-02-18T13:32:30;10.00;92.70
40085;DHT22;25786;51.504;7.344;2023-02-18T13:40:25;10.10;92.70
40085;DHT22;25786;51.504;7.344;2023-02-18T13:43:38;10.10;92.70
40085;DHT22;25786;51.504;7.344;2023-02-18T13:46:00;10.10;92.50
40085;DHT22;25786;51.504;7.344;2023-02-18T13:48:27;10.10;92.40
40085;DHT22;25786;51.504;7.344;2023-02-18T13:50:53;10.10;92.60
40085;DHT22;25786;51.504;7.344;2023-02-18T13:53:24;10.20;92.50
40085;DHT22;25786;51.504;7.344;2023-02-18T13:58:19;10.10;92.60
40085;DHT22;25786;51.504;7.344;2023-02-18T14:00:51;10.20;92.60
40085;DHT22;25786;51.504;7.344;2023-02-18T14:06:15;10.10;92.60
40085;DHT22;25786;51.504;7.344;2023-02-18T14:08:48;10.10;92.60
40085;DHT22;25786;51.504;7.344;2023-02-18T14:16:10;10.20;92.50
40085;DHT22;25786;51.504;7.344;2023-02-18T14:21:36;10.20;92.60
40085;DHT22;25786;51.504;7.344;2023-02-18T14:24:03;10.20;92.50
40085;DHT22;25786;51.504;7.344;2023-02-18T14:26:33;10.20;92.60
40085;DHT22;25786;51.504;7.344;2023-02-18T14:29:09;10.20;92.50
40085;DHT22;25786;51.504;7.344;2023-02-18T14:36:44;10.20;92.40
40085;DHT22;25786;51.504;7.344;2023-02-18T14:42:02;10.20;92.50
40085;DHT22;25786;51.504;7.344;2023-02-18T14:50:04;10.20;92.50
40085;DHT22;25786;51.504;7.344;2023-02-18T14:52:37;10.20;92.30
40085;DHT22;25786;51.504;7.344;2023-02-18T14:55:05;10.20;92.40
40085;DHT22;25786;51.504;7.344;2023-02-18T14:57:40;10.30;92.50
40085;DHT22;25786;51.504;7.344;2023-02-18T15:00:13;10.30;92.40
40085;DHT22;25786;51.504;7.344;2023-02-18T15:02:46;10.30;92.50
40085;DHT22;25786;51.504;7.344;2023-02-18T15:05:16;10.40;92.50
40085;DHT22;25786;51.504;7.344;2023-02-18T15:07:53;10.40;92.40
40085;DHT22;25786;51.504;7.344;2023-02-18T15:10:19;10.40;92.20
40085;DHT22;25786;51.504;7.344;2023-02-18T15:12:44;10.30;92.40
40085;DHT22;25786;51.504;7.344;2023-02-18T15:15:12;10.30;92.30
40085;DHT22;25786;51.504;7.344;2023-02-18T15:17:38;10.30;92.50
40085;DHT22;25786;51.504;7.344;2023-02-18T15:20:09;10.30;92.50
40085;DHT22;25786;51.504;7.344;2023-02-18T15:22:35;10.30;92.50
40085;DHT22;25786;51.504;7.344;2023-02-18T15:25:01;10.30;92.50
40085;DHT22;25786;51.504;7.344;2023-02-18T15:27:28;10.40;92.60
40085;DHT22;25786;51.504;7.344;2023-02-18T15:30:01;10.40;92.30
40085;DHT22;25786;51.504;7.344;2023-02-18T15:32:30;10.40;92.30
40085;DHT22;25786;51.504;7.344;2023-02-18T15:35:00;10.40;92.30
40085;DHT22;25786;51.504;7.344;2023-02-18T15:37:29;10.50;92.20
40085;DHT22;25786;51.504;7.344;2023-02-18T15:39:54;10.50;92.20
40085;DHT22;25786;51.504;7.344;2023-02-18T15:45:35;10.50;92.10
40085;DHT22;25786;51.504;7.344;2023-02-18T15:48:03;10.50;92.20
40085;DHT22;25786;51.504;7.344;2023-02-18T15:50:45;10.50;92.20
40085;DHT22;25786;51.504;7.344;2023-02-18T15:53:15;10.50;92.20
40085;DHT22;25786;51.504;7.344;2023-02-18T15:55:45;10.60;92.00
40085;DHT22;25786;51.504;7.344;2023-02-18T15:58:12;10.50;91.80
40085;DHT22;25786;51.504;7.344;2023-02-18T16:00:39;10.60;91.90
40085;DHT22;25786;51.504;7.344;2023-02-18T16:05:36;10.50;91.90
40085;DHT22;25786;51.504;7.344;2023-02-18T16:08:05;10.50;91.90
40085;DHT22;25786;51.504;7.344;2023-02-18T16:13:00;10.50;91.80
40085;DHT22;25786;51.504;7.344;2023-02-18T16:15:37;10.50;91.90
40085;DHT22;25786;51.504;7.344;2023-02-18T16:18:04;10.50;92.00
40085;DHT22;25786;51.504;7.344;2023-02-18T16:20:32;10.50;91.70
40085;DHT22;25786;51.504;7.344;2023-02-18T16:22:59;10.50;91.70
40085;DHT22;25786;51.504;7.344;2023-02-18T16:25:26;10.60;91.70
40085;DHT22;25786;51.504;7.344;2023-02-18T16:28:32;10.50;91.70
40085;DHT22;25786;51.504;7.344;2023-02-18T16:30:54;10.50;91.70
40085;DHT22;25786;51.504;7.344;2023-02-18T16:33:19;10.60;91.40
40085;DHT22;25786;51.504;7.344;2023-02-18T16:35:44;10.60;91.50
40085;DHT22;25786;51.504;7.344;2023-02-18T16:38:21;10.60;91.40
40085;DHT22;25786;51.504;7.344;2023-02-18T16:40:46;10.60;91.50
40085;DHT22;25786;51.504;7.344;2023-02-18T16:43:19;10.50;91.60
40085;DHT22;25786;51.504;7.344;2023-02-18T16:45:49;10.60;91.70
40085;DHT22;25786;51.504;7.344;2023-02-18T16:48:20;10.60;91.70
40085;DHT22;25786;51.504;7.344;2023-02-18T16:50:47;10.60;91.60
40085;DHT22;25786;51.504;7.344;2023-02-18T16:53:13;10.50;91.50
40085;DHT22;25786;51.504;7.344;2023-02-18T16:55:48;10.60;91.60
40085;DHT22;25786;51.504;7.344;2023-02-18T16:58:13;10.50;91.60
40085;DHT22;25786;51.504;7.344;2023-02-18T17:00:44;10.50;91.60
40085;DHT22;25786;51.504;7.344;2023-02-18T17:03:10;10.50;91.70
40085;DHT22;25786;51.504;7.344;2023-02-18T17:05:48;10.50;91.60
40085;DHT22;25786;51.504;7.344;2023-02-18T17:08:22;10.50;91.60
40085;DHT22;25786;51.504;7.344;2023-02-18T17:10:49;10.50;91.50
40085;DHT22;25786;51.504;7.344;2023-02-18T17:13:19;10.50;91.50
40085;DHT22;25786;51.504;7.344;2023-02-18T17:15:45;10.50;91.70
40085;DHT22;25786;51.504;7.344;2023-02-18T17:18:11;10.50;91.70
40085;DHT22;25786;51.504;7.344;2023-02-18T17:20:37;10.50;91.50
40085;DHT22;25786;51.504;7.344;2023-02-18T17:23:02;10.50;91.60
40085;DHT22;25786;51.504;7.344;2023-02-18T17:25:29;10.50;91.30
40085;DHT22;25786;51.504;7.344;2023-02-18T17:27:55;10.50;91.30
40085;DHT22;25786;51.504;7.344;2023-02-18T17:30:21;10.50;91.40
40085;DHT22;25786;51.504;7.344;2023-02-18T17:32:46;10.40;91.10
40085;DHT22;25786;51.504;7.344;2023-02-18T17:35:20;10.40;91.50
40085;DHT22;25786;51.504;7.344;2023-02-18T17:37:46;10.50;91.30
40085;DHT22;25786;51.504;7.344;2023-02-18T17:40:13;10.50;91.20
40085;DHT22;25786;51.504;7.344;2023-02-18T17:42:39;10.50;91.40
40085;DHT22;25786;51.504;7.344;2023-02-18T17:45:11;10.50;91.40
40085;DHT22;25786;51.504;7.344;2023-02-18T17:47:38;10.50;91.40
40085;DHT22;25786;51.504;7.344;2023-02-18T17:50:04;10.50;91.30
40085;DHT22;25786;51.504;7.344;2023-02-18T17:52:30;10.50;91.30
40085;DHT22;25786;51.504;7.344;2023-02-18T17:54:55;10.50;91.30
40085;DHT22;25786;51.504;7.344;2023-02-18T17:57:21;10.50;91.30
40085;DHT22;25786;51.504;7.344;2023-02-18T17:59:46;10.50;91.40
40085;DHT22;25786;51.504;7.344;2023-02-18T18:02:23;10.50;91.30
40085;DHT22;25786;51.504;7.344;2023-02-18T18:04:49;10.40;91.40
40085;DHT22;25786;51.504;7.344;2023-02-18T18:07:14;10.40;91.40
40085;DHT22;25786;51.504;7.344;2023-02-18T18:09:40;10.40;91.60
40085;DHT22;25786;51.504;7.344;2023-02-18T18:12:05;10.40;91.50
40085;DHT22;25786;51.504;7.344;2023-02-18T18:14:31;10.40;91.70